sensor_id;sensor_type;location;lat;lon;timestamp;pressure;altitude;pressure_sealevel;temperature
12918;BMP180;6526;54.312;13.092;2024-03-06T00:02:10;102423.00;;;11.40
12918;BMP180;6526;54.312;13.092;2024-03-06T00:04:36;102417.00;;;11.50
12918;BMP180;6526;54.312;13.092;2024-03-06T00:07:03;102429.00;;;11.50
12918;BMP180;6526;54.312;13.092;2024-03-06T00:09:29;102420.00;;;11.40
12918;BMP180;6526;54.312;13.092;2024-03-06T00:11:55;102436.00;;;11.30
12918;BMP180;6526;54.312;13.092;2024-03-06T00:14:22;102433.00;;;11.30
12918;BMP180;6526;54.312;13.092;2024-03-06T00:16:49;102439.00;;;11.20
12918;BMP180;6526;54.312;13.092;2024-03-06T00:19:18;102440.00;;;11.20
12918;BMP180;6526;54.312;13.092;2024-03-06T00:21:44;102449.00;;;11.30
12918;BMP180;6526;54.312;13.092;2024-03-06T00:24:14;102452.00;;;11.30
12918;BMP180;6526;54.312;13.092;2024-03-06T00:26:41;102454.00;;;11.30
12918;BMP180;6526;54.312;13.092;2024-03-06T00:29:08;102461.00;;;11.30
12918;BMP180;6526;54.312;13.092;2024-03-06T00:31:34;102466.00;;;11.30
12918;BMP180;6526;54.312;13.092;2024-03-06T00:34:00;102461.00;;;11.40
12918;BMP180;6526;54.312;13.092;2024-03-06T00:36:26;102457.00;;;11.40
12918;BMP180;6526;54.312;13.092;2024-03-06T00:38:52;102464.00;;;11.40
12918;BMP180;6526;54.312;13.092;2024-03-06T00:41:18;102458.00;;;11.40
12918;BMP180;6526;54.312;13.092;2024-03-06T00:43:45;102468.00;;;11.40
12918;BMP180;6526;54.312;13.092;2024-03-06T00:46:11;102470.00;;;11.40
12918;BMP180;6526;54.312;13.092;2024-03-06T00:48:37;102463.00;;;11.40
12918;BMP180;6526;54.312;13.092;2024-03-06T00:51:06;102468.00;;;11.40
12918;BMP180;6526;54.312;13.092;2024-03-06T00:53:34;102475.00;;;11.40
12918;BMP180;6526;54.312;13.092;2024-03-06T00:56:00;102475.00;;;11.30
12918;BMP180;6526;54.312;13.092;2024-03-06T00:58:27;102487.00;;;11.30
12918;BMP180;6526;54.312;13.092;2024-03-06T01:00:53;102487.00;;;11.30
12918;BMP180;6526;54.312;13.092;2024-03-06T01:03:19;102480.00;;;11.20
12918;BMP180;6526;54.312;13.092;2024-03-06T01:05:46;102487.00;;;11.30
12918;BMP180;6526;54.312;13.092;2024-03-06T01:08:12;102488.00;;;11.20
12918;BMP180;6526;54.312;13.092;2024-03-06T01:10:38;102486.00;;;11.30
12918;BMP180;6526;54.312;13.092;2024-03-06T01:13:04;102489.00;;;11.30
12918;BMP180;6526;54.312;13.092;2024-03-06T01:15:30;102496.00;;;11.20
12918;BMP180;6526;54.312;13.092;2024-03-06T01:17:56;102496.00;;;11.20
12918;BMP180;6526;54.312;13.092;2024-03-06T01:20:23;102499.00;;;11.20
12918;BMP180;6526;54.312;13.092;2024-03-06T01:22:49;102488.00;;;11.30
12918;BMP180;6526;54.312;13.092;2024-03-06T01:25:15;102496.00;;;11.30
12918;BMP180;6526;54.312;13.092;2024-03-06T01:27:41;102496.00;;;11.40
12918;BMP180;6526;54.312;13.092;2024-03-06T01:30:07;102499.00;;;11.40
12918;BMP180;6526;54.312;13.092;2024-03-06T01:32:34;102508.00;;;11.40
12918;BMP180;6526;54.312;13.092;2024-03-06T01:35:00;102515.00;;;11.40
12918;BMP180;6526;54.312;13.092;2024-03-06T01:37:26;102509.00;;;11.50
12918;BMP180;6526;54.312;13.092;2024-03-06T01:39:52;102504.00;;;11.50
12918;BMP180;6526;54.312;13.092;2024-03-06T01:42:18;102514.00;;;11.40
12918;BMP180;6526;54.312;13.092;2024-03-06T01:44:44;102511.00;;;11.40
12918;BMP180;6526;54.312;13.092;2024-03-06T01:47:10;102515.00;;;11.40
12918;BMP180;6526;54.312;13.092;2024-03-06T01:49:36;102512.00;;;11.40
12918;BMP180;6526;54.312;13.092;2024-03-06T01:52:03;102510.00;;;11.30
12918;BMP180;6526;54.312;13.092;2024-03-06T01:54:30;102516.00;;;11.30
12918;BMP180;6526;54.312;13.092;2024-03-06T01:56:58;102514.00;;;11.30
12918;BMP180;6526;54.312;13.092;2024-03-06T01:59:26;102528.00;;;11.30
12918;BMP180;6526;54.312;13.092;2024-03-06T02:01:53;102520.00;;;11.20
12918;BMP180;6526;54.312;13.092;2024-03-06T02:04:20;102536.00;;;11.30
12918;BMP180;6526;54.312;13.092;2024-03-06T02:06:47;102523.00;;;11.30
12918;BMP180;6526;54.312;13.092;2024-03-06T02:09:13;102537.00;;;11.30
12918;BMP180;6526;54.312;13.092;2024-03-06T02:11:42;102532.00;;;11.30
12918;BMP180;6526;54.312;13.092;2024-03-06T02:14:10;102531.00;;;11.30
12918;BMP180;6526;54.312;13.092;2024-03-06T02:16:37;102533.00;;;11.30
12918;BMP180;6526;54.312;13.092;2024-03-06T02:19:05;102529.00;;;11.30
12918;BMP180;6526;54.312;13.092;2024-03-06T02:21:31;102531.00;;;11.40
12918;BMP180;6526;54.312;13.092;2024-03-06T02:23:57;102536.00;;;11.40
12918;BMP180;6526;54.312;13.092;2024-03-06T02:26:24;102545.00;;;11.40
12918;BMP180;6526;54.312;13.092;2024-03-06T02:28:52;102552.00;;;11.40
12918;BMP180;6526;54.312;13.092;2024-03-06T02:31:19;102549.00;;;11.30
12918;BMP180;6526;54.312;13.092;2024-03-06T02:33:46;102558.00;;;11.30
12918;BMP180;6526;54.312;13.092;2024-03-06T02:36:19;102550.00;;;11.30
12918;BMP180;6526;54.312;13.092;2024-03-06T02:38:45;102559.00;;;11.10
12918;BMP180;6526;54.312;13.092;2024-03-06T02:41:12;102550.00;;;10.90
12918;BMP180;6526;54.312;13.092;2024-03-06T02:43:41;102552.00;;;10.90
12918;BMP180;6526;54.312;13.092;2024-03-06T02:46:08;102554.00;;;10.80
12918;BMP180;6526;54.312;13.092;2024-03-06T02:48:34;102551.00;;;10.70
12918;BMP180;6526;54.312;13.092;2024-03-06T02:51:00;102562.00;;;10.80
12918;BMP180;6526;54.312;13.092;2024-03-06T02:53:26;102565.00;;;10.90
12918;BMP180;6526;54.312;13.092;2024-03-06T02:55:53;102562.00;;;11.00
12918;BMP180;6526;54.312;13.092;2024-03-06T02:58:19;102562.00;;;11.00
12918;BMP180;6526;54.312;13.092;2024-03-06T03:00:45;102558.00;;;11.10
12918;BMP180;6526;54.312;13.092;2024-03-06T03:03:11;102569.00;;;11.10
12918;BMP180;6526;54.312;13.092;2024-03-06T03:05:38;102569.00;;;11.10
12918;BMP180;6526;54.312;13.092;2024-03-06T03:08:05;102578.00;;;10.90
12918;BMP180;6526;54.312;13.092;2024-03-06T03:10:31;102574.00;;;10.90
12918;BMP180;6526;54.312;13.092;2024-03-06T03:12:57;102581.00;;;10.90
12918;BMP180;6526;54.312;13.092;2024-03-06T03:15:23;102581.00;;;10.80
12918;BMP180;6526;54.312;13.092;2024-03-06T03:17:49;102573.00;;;10.80
12918;BMP180;6526;54.312;13.092;2024-03-06T03:20:15;102588.00;;;10.80
12918;BMP180;6526;54.312;13.092;2024-03-06T03:22:43;102586.00;;;10.80
12918;BMP180;6526;54.312;13.092;2024-03-06T03:25:10;102586.00;;;10.80
12918;BMP180;6526;54.312;13.092;2024-03-06T03:27:38;102587.00;;;10.80
12918;BMP180;6526;54.312;13.092;2024-03-06T03:30:08;102589.00;;;10.90
12918;BMP180;6526;54.312;13.092;2024-03-06T03:32:34;102586.00;;;11.00
12918;BMP180;6526;54.312;13.092;2024-03-06T03:35:00;102591.00;;;11.10
12918;BMP180;6526;54.312;13.092;2024-03-06T03:37:26;102603.00;;;11.00
12918;BMP180;6526;54.312;13.092;2024-03-06T03:39:53;102600.00;;;10.90
12918;BMP180;6526;54.312;13.092;2024-03-06T03:42:20;102604.00;;;10.90
12918;BMP180;6526;54.312;13.092;2024-03-06T03:44:46;102602.00;;;11.00
12918;BMP180;6526;54.312;13.092;2024-03-06T03:47:12;102603.00;;;11.10
12918;BMP180;6526;54.312;13.092;2024-03-06T03:49:38;102622.00;;;11.20
12918;BMP180;6526;54.312;13.092;2024-03-06T03:52:04;102620.00;;;11.20
12918;BMP180;6526;54.312;13.092;2024-03-06T03:54:30;102620.00;;;11.20
12918;BMP180;6526;54.312;13.092;2024-03-06T03:56:56;102620.00;;;11.00
12918;BMP180;6526;54.312;13.092;2024-03-06T03:59:24;102618.00;;;11.00
12918;BMP180;6526;54.312;13.092;2024-03-06T04:01:50;102635.00;;;10.90
12918;BMP180;6526;54.312;13.092;2024-03-06T04:04:16;102626.00;;;10.90
12918;BMP180;6526;54.312;13.092;2024-03-06T04:06:42;102621.00;;;10.90
12918;BMP180;6526;54.312;13.092;2024-03-06T04:09:08;102624.00;;;11.00
12918;BMP180;6526;54.312;13.092;2024-03-06T04:11:37;102623.00;;;10.90
12918;BMP180;6526;54.312;13.092;2024-03-06T04:14:04;102630.00;;;11.00
12918;BMP180;6526;54.312;13.092;2024-03-06T04:16:32;102635.00;;;10.90
12918;BMP180;6526;54.312;13.092;2024-03-06T04:18:58;102628.00;;;10.90
12918;BMP180;6526;54.312;13.092;2024-03-06T04:21:24;102643.00;;;11.00
12918;BMP180;6526;54.312;13.092;2024-03-06T04:23:50;102647.00;;;11.00
12918;BMP180;6526;54.312;13.092;2024-03-06T04:26:16;102645.00;;;11.00
12918;BMP180;6526;54.312;13.092;2024-03-06T04:28:43;102641.00;;;11.10
12918;BMP180;6526;54.312;13.092;2024-03-06T04:31:10;102646.00;;;11.00
12918;BMP180;6526;54.312;13.092;2024-03-06T04:33:36;102656.00;;;11.00
12918;BMP180;6526;54.312;13.092;2024-03-06T04:36:03;102648.00;;;11.10
12918;BMP180;6526;54.312;13.092;2024-03-06T04:38:29;102664.00;;;11.00
12918;BMP180;6526;54.312;13.092;2024-03-06T04:40:55;102663.00;;;10.90
12918;BMP180;6526;54.312;13.092;2024-03-06T04:43:21;102666.00;;;10.90
12918;BMP180;6526;54.312;13.092;2024-03-06T04:45:47;102670.00;;;11.00
12918;BMP180;6526;54.312;13.092;2024-03-06T04:48:13;102668.00;;;11.10
12918;BMP180;6526;54.312;13.092;2024-03-06T04:50:39;102672.00;;;11.20
12918;BMP180;6526;54.312;13.092;2024-03-06T04:53:07;102669.00;;;11.30
12918;BMP180;6526;54.312;13.092;2024-03-06T04:55:33;102672.00;;;11.30
12918;BMP180;6526;54.312;13.092;2024-03-06T04:57:59;102673.00;;;11.30
12918;BMP180;6526;54.312;13.092;2024-03-06T05:00:25;102673.00;;;11.30
12918;BMP180;6526;54.312;13.092;2024-03-06T05:02:51;102675.00;;;11.30
12918;BMP180;6526;54.312;13.092;2024-03-06T05:05:17;102685.00;;;11.30
12918;BMP180;6526;54.312;13.092;2024-03-06T05:07:43;102678.00;;;11.30
12918;BMP180;6526;54.312;13.092;2024-03-06T05:10:09;102691.00;;;11.30
12918;BMP180;6526;54.312;13.092;2024-03-06T05:12:35;102691.00;;;11.40
12918;BMP180;6526;54.312;13.092;2024-03-06T05:15:02;102708.00;;;11.40
12918;BMP180;6526;54.312;13.092;2024-03-06T05:17:28;102701.00;;;11.40
12918;BMP180;6526;54.312;13.092;2024-03-06T05:19:55;102706.00;;;11.40
12918;BMP180;6526;54.312;13.092;2024-03-06T05:22:21;102716.00;;;11.40
12918;BMP180;6526;54.312;13.092;2024-03-06T05:24:47;102722.00;;;11.30
12918;BMP180;6526;54.312;13.092;2024-03-06T05:27:13;102712.00;;;11.30
12918;BMP180;6526;54.312;13.092;2024-03-06T05:29:43;102725.00;;;11.20
12918;BMP180;6526;54.312;13.092;2024-03-06T05:32:09;102725.00;;;11.20
12918;BMP180;6526;54.312;13.092;2024-03-06T05:34:35;102732.00;;;10.90
12918;BMP180;6526;54.312;13.092;2024-03-06T05:37:02;102736.00;;;10.80
12918;BMP180;6526;54.312;13.092;2024-03-06T05:39:30;102732.00;;;10.80
12918;BMP180;6526;54.312;13.092;2024-03-06T05:42:03;102737.00;;;10.70
12918;BMP180;6526;54.312;13.092;2024-03-06T05:44:31;102739.00;;;10.70
12918;BMP180;6526;54.312;13.092;2024-03-06T05:46:59;102741.00;;;10.70
12918;BMP180;6526;54.312;13.092;2024-03-06T05:49:25;102744.00;;;10.60
12918;BMP180;6526;54.312;13.092;2024-03-06T05:51:51;102756.00;;;10.60
12918;BMP180;6526;54.312;13.092;2024-03-06T05:54:19;102756.00;;;10.50
12918;BMP180;6526;54.312;13.092;2024-03-06T05:56:45;102760.00;;;10.60
12918;BMP180;6526;54.312;13.092;2024-03-06T05:59:13;102746.00;;;10.70
12918;BMP180;6526;54.312;13.092;2024-03-06T06:01:39;102751.00;;;10.70
12918;BMP180;6526;54.312;13.092;2024-03-06T06:04:05;102752.00;;;10.80
12918;BMP180;6526;54.312;13.092;2024-03-06T06:06:31;102761.00;;;10.70
12918;BMP180;6526;54.312;13.092;2024-03-06T06:08:57;102763.00;;;10.70
12918;BMP180;6526;54.312;13.092;2024-03-06T06:11:23;102760.00;;;10.80
12918;BMP180;6526;54.312;13.092;2024-03-06T06:13:49;102760.00;;;10.70
12918;BMP180;6526;54.312;13.092;2024-03-06T06:16:15;102769.00;;;10.70
12918;BMP180;6526;54.312;13.092;2024-03-06T06:18:41;102771.00;;;10.70
12918;BMP180;6526;54.312;13.092;2024-03-06T06:21:08;102772.00;;;10.60
12918;BMP180;6526;54.312;13.092;2024-03-06T06:23:34;102782.00;;;10.60
12918;BMP180;6526;54.312;13.092;2024-03-06T06:26:00;102790.00;;;10.60
12918;BMP180;6526;54.312;13.092;2024-03-06T06:28:27;102785.00;;;10.60
12918;BMP180;6526;54.312;13.092;2024-03-06T06:30:53;102787.00;;;10.60
12918;BMP180;6526;54.312;13.092;2024-03-06T06:33:19;102790.00;;;10.70
12918;BMP180;6526;54.312;13.092;2024-03-06T06:35:46;102803.00;;;10.80
12918;BMP180;6526;54.312;13.092;2024-03-06T06:38:13;102791.00;;;10.80
12918;BMP180;6526;54.312;13.092;2024-03-06T06:40:39;102794.00;;;10.90
12918;BMP180;6526;54.312;13.092;2024-03-06T06:43:06;102791.00;;;11.00
12918;BMP180;6526;54.312;13.092;2024-03-06T06:45:32;102799.00;;;11.00
12918;BMP180;6526;54.312;13.092;2024-03-06T06:47:58;102798.00;;;11.00
12918;BMP180;6526;54.312;13.092;2024-03-06T06:50:24;102805.00;;;11.20
12918;BMP180;6526;54.312;13.092;2024-03-06T06:52:52;102805.00;;;11.30
12918;BMP180;6526;54.312;13.092;2024-03-06T06:55:18;102797.00;;;11.30
12918;BMP180;6526;54.312;13.092;2024-03-06T06:57:49;102809.00;;;11.30
12918;BMP180;6526;54.312;13.092;2024-03-06T07:00:15;102818.00;;;11.30
12918;BMP180;6526;54.312;13.092;2024-03-06T07:02:44;102812.00;;;11.20
12918;BMP180;6526;54.312;13.092;2024-03-06T07:05:11;102814.00;;;11.20
12918;BMP180;6526;54.312;13.092;2024-03-06T07:07:38;102820.00;;;11.20
12918;BMP180;6526;54.312;13.092;2024-03-06T07:10:05;102821.00;;;11.30
12918;BMP180;6526;54.312;13.092;2024-03-06T07:12:32;102813.00;;;11.20
12918;BMP180;6526;54.312;13.092;2024-03-06T07:14:58;102815.00;;;11.40
12918;BMP180;6526;54.312;13.092;2024-03-06T07:17:26;102827.00;;;11.50
12918;BMP180;6526;54.312;13.092;2024-03-06T07:19:52;102829.00;;;11.60
12918;BMP180;6526;54.312;13.092;2024-03-06T07:22:18;102828.00;;;11.70
12918;BMP180;6526;54.312;13.092;2024-03-06T07:24:44;102832.00;;;11.90
12918;BMP180;6526;54.312;13.092;2024-03-06T07:27:10;102832.00;;;12.10
12918;BMP180;6526;54.312;13.092;2024-03-06T07:29:37;102832.00;;;12.20
12918;BMP180;6526;54.312;13.092;2024-03-06T07:32:03;102833.00;;;12.30
12918;BMP180;6526;54.312;13.092;2024-03-06T07:34:33;102843.00;;;12.50
12918;BMP180;6526;54.312;13.092;2024-03-06T07:36:59;102833.00;;;12.50
12918;BMP180;6526;54.312;13.092;2024-03-06T07:39:25;102843.00;;;12.40
12918;BMP180;6526;54.312;13.092;2024-03-06T07:41:52;102842.00;;;12.40
12918;BMP180;6526;54.312;13.092;2024-03-06T07:44:18;102843.00;;;12.60
12918;BMP180;6526;54.312;13.092;2024-03-06T07:46:44;102845.00;;;12.60
12918;BMP180;6526;54.312;13.092;2024-03-06T07:49:10;102856.00;;;12.60
12918;BMP180;6526;54.312;13.092;2024-03-06T07:51:37;102852.00;;;12.60
12918;BMP180;6526;54.312;13.092;2024-03-06T07:54:04;102851.00;;;12.70
12918;BMP180;6526;54.312;13.092;2024-03-06T07:56:30;102857.00;;;12.90
12918;BMP180;6526;54.312;13.092;2024-03-06T07:58:56;102866.00;;;13.00
12918;BMP180;6526;54.312;13.092;2024-03-06T08:01:24;102863.00;;;13.00
12918;BMP180;6526;54.312;13.092;2024-03-06T08:03:50;102870.00;;;13.10
12918;BMP180;6526;54.312;13.092;2024-03-06T08:06:16;102874.00;;;13.20
12918;BMP180;6526;54.312;13.092;2024-03-06T08:08:43;102871.00;;;13.20
12918;BMP180;6526;54.312;13.092;2024-03-06T08:11:10;102876.00;;;13.40
12918;BMP180;6526;54.312;13.092;2024-03-06T08:13:37;102875.00;;;13.70
12918;BMP180;6526;54.312;13.092;2024-03-06T08:16:04;102880.00;;;13.90
12918;BMP180;6526;54.312;13.092;2024-03-06T08:18:30;102882.00;;;14.00
12918;BMP180;6526;54.312;13.092;2024-03-06T08:20:57;102887.00;;;14.00
12918;BMP180;6526;54.312;13.092;2024-03-06T08:23:23;102895.00;;;14.00
12918;BMP180;6526;54.312;13.092;2024-03-06T08:25:52;102900.00;;;14.10
12918;BMP180;6526;54.312;13.092;2024-03-06T08:28:18;102900.00;;;14.00
12918;BMP180;6526;54.312;13.092;2024-03-06T08:30:44;102905.00;;;13.90
12918;BMP180;6526;54.312;13.092;2024-03-06T08:33:11;102910.00;;;13.90
12918;BMP180;6526;54.312;13.092;2024-03-06T08:35:37;102900.00;;;13.90
12918;BMP180;6526;54.312;13.092;2024-03-06T08:38:03;102898.00;;;14.00
12918;BMP180;6526;54.312;13.092;2024-03-06T08:40:29;102905.00;;;14.00
12918;BMP180;6526;54.312;13.092;2024-03-06T08:42:55;102908.00;;;14.00
12918;BMP180;6526;54.312;13.092;2024-03-06T08:45:22;102909.00;;;14.20
12918;BMP180;6526;54.312;13.092;2024-03-06T08:47:51;102913.00;;;14.10
12918;BMP180;6526;54.312;13.092;2024-03-06T08:50:19;102918.00;;;14.00
12918;BMP180;6526;54.312;13.092;2024-03-06T08:52:46;102941.00;;;14.00
12918;BMP180;6526;54.312;13.092;2024-03-06T08:55:12;102940.00;;;13.90
12918;BMP180;6526;54.312;13.092;2024-03-06T08:57:39;102929.00;;;14.10
12918;BMP180;6526;54.312;13.092;2024-03-06T09:00:06;102934.00;;;14.20
12918;BMP180;6526;54.312;13.092;2024-03-06T09:02:36;102944.00;;;14.20
12918;BMP180;6526;54.312;13.092;2024-03-06T09:05:03;102941.00;;;14.30
12918;BMP180;6526;54.312;13.092;2024-03-06T09:07:30;102946.00;;;14.30
12918;BMP180;6526;54.312;13.092;2024-03-06T09:09:56;102934.00;;;14.30
12918;BMP180;6526;54.312;13.092;2024-03-06T09:12:22;102939.00;;;14.20
12918;BMP180;6526;54.312;13.092;2024-03-06T09:14:48;102948.00;;;14.30
12918;BMP180;6526;54.312;13.092;2024-03-06T09:17:14;102958.00;;;14.20
12918;BMP180;6526;54.312;13.092;2024-03-06T09:19:41;102946.00;;;14.00
12918;BMP180;6526;54.312;13.092;2024-03-06T09:22:08;102938.00;;;14.00
12918;BMP180;6526;54.312;13.092;2024-03-06T09:24:34;102949.00;;;13.90
12918;BMP180;6526;54.312;13.092;2024-03-06T09:27:06;102953.00;;;14.20
12918;BMP180;6526;54.312;13.092;2024-03-06T09:29:32;102955.00;;;14.40
12918;BMP180;6526;54.312;13.092;2024-03-06T09:31:58;102957.00;;;14.60
12918;BMP180;6526;54.312;13.092;2024-03-06T09:34:25;102953.00;;;14.80
12918;BMP180;6526;54.312;13.092;2024-03-06T09:36:51;102960.00;;;15.00
12918;BMP180;6526;54.312;13.092;2024-03-06T09:39:18;102966.00;;;15.10
12918;BMP180;6526;54.312;13.092;2024-03-06T09:41:49;102960.00;;;15.20
12918;BMP180;6526;54.312;13.092;2024-03-06T09:44:16;102956.00;;;15.10
12918;BMP180;6526;54.312;13.092;2024-03-06T09:46:45;102963.00;;;14.90
12918;BMP180;6526;54.312;13.092;2024-03-06T09:49:12;102963.00;;;15.00
12918;BMP180;6526;54.312;13.092;2024-03-06T09:51:47;102958.00;;;15.10
12918;BMP180;6526;54.312;13.092;2024-03-06T09:54:16;102960.00;;;14.90
12918;BMP180;6526;54.312;13.092;2024-03-06T09:56:49;102971.00;;;15.00
12918;BMP180;6526;54.312;13.092;2024-03-06T09:59:15;102970.00;;;15.10
12918;BMP180;6526;54.312;13.092;2024-03-06T10:01:53;102971.00;;;14.90
12918;BMP180;6526;54.312;13.092;2024-03-06T10:06:56;102976.00;;;14.80
12918;BMP180;6526;54.312;13.092;2024-03-06T10:09:23;102973.00;;;14.80
12918;BMP180;6526;54.312;13.092;2024-03-06T10:11:50;102967.00;;;14.90
12918;BMP180;6526;54.312;13.092;2024-03-06T10:14:18;102966.00;;;15.10
12918;BMP180;6526;54.312;13.092;2024-03-06T10:16:54;102987.00;;;15.40
12918;BMP180;6526;54.312;13.092;2024-03-06T10:19:23;102976.00;;;15.70
12918;BMP180;6526;54.312;13.092;2024-03-06T10:21:50;102974.00;;;15.80
12918;BMP180;6526;54.312;13.092;2024-03-06T10:24:27;102984.00;;;15.70
12918;BMP180;6526;54.312;13.092;2024-03-06T10:26:55;102982.00;;;15.70
12918;BMP180;6526;54.312;13.092;2024-03-06T10:29:26;102979.00;;;15.70
12918;BMP180;6526;54.312;13.092;2024-03-06T10:31:54;102983.00;;;15.80
12918;BMP180;6526;54.312;13.092;2024-03-06T10:34:21;102985.00;;;15.90
12918;BMP180;6526;54.312;13.092;2024-03-06T10:36:55;102979.00;;;16.00
12918;BMP180;6526;54.312;13.092;2024-03-06T10:39:21;102985.00;;;16.20
12918;BMP180;6526;54.312;13.092;2024-03-06T10:41:55;102988.00;;;16.40
12918;BMP180;6526;54.312;13.092;2024-03-06T10:44:25;102983.00;;;16.60
12918;BMP180;6526;54.312;13.092;2024-03-06T10:47:03;102993.00;;;16.40
12918;BMP180;6526;54.312;13.092;2024-03-06T10:49:30;102993.00;;;16.30
12918;BMP180;6526;54.312;13.092;2024-03-06T10:52:03;103002.00;;;16.20
12918;BMP180;6526;54.312;13.092;2024-03-06T10:54:34;103004.00;;;16.10
12918;BMP180;6526;54.312;13.092;2024-03-06T10:57:05;102995.00;;;16.10
12918;BMP180;6526;54.312;13.092;2024-03-06T10:59:31;103001.00;;;16.00
12918;BMP180;6526;54.312;13.092;2024-03-06T11:02:00;102994.00;;;15.90
12918;BMP180;6526;54.312;13.092;2024-03-06T11:04:30;103005.00;;;15.80
12918;BMP180;6526;54.312;13.092;2024-03-06T11:07:03;102999.00;;;16.00
12918;BMP180;6526;54.312;13.092;2024-03-06T11:09:33;103003.00;;;16.00
12918;BMP180;6526;54.312;13.092;2024-03-06T11:12:04;103004.00;;;16.00
12918;BMP180;6526;54.312;13.092;2024-03-06T11:14:33;103002.00;;;15.90
12918;BMP180;6526;54.312;13.092;2024-03-06T11:17:03;102998.00;;;15.70
12918;BMP180;6526;54.312;13.092;2024-03-06T11:19:31;103006.00;;;15.50
12918;BMP180;6526;54.312;13.092;2024-03-06T11:21:57;103006.00;;;15.30
12918;BMP180;6526;54.312;13.092;2024-03-06T11:24:34;102996.00;;;15.30
12918;BMP180;6526;54.312;13.092;2024-03-06T11:27:01;103003.00;;;15.10
12918;BMP180;6526;54.312;13.092;2024-03-06T11:29:29;103004.00;;;15.20
12918;BMP180;6526;54.312;13.092;2024-03-06T11:32:00;103008.00;;;15.10
12918;BMP180;6526;54.312;13.092;2024-03-06T11:34:27;103010.00;;;15.10
12918;BMP180;6526;54.312;13.092;2024-03-06T11:37:03;103010.00;;;15.10
12918;BMP180;6526;54.312;13.092;2024-03-06T11:39:34;103007.00;;;15.10
12918;BMP180;6526;54.312;13.092;2024-03-06T11:42:00;103007.00;;;15.00
12918;BMP180;6526;54.312;13.092;2024-03-06T11:44:27;103021.00;;;14.90
12918;BMP180;6526;54.312;13.092;2024-03-06T11:46:59;103010.00;;;14.90
12918;BMP180;6526;54.312;13.092;2024-03-06T11:49:30;103007.00;;;15.00
12918;BMP180;6526;54.312;13.092;2024-03-06T11:52:01;103018.00;;;15.00
12918;BMP180;6526;54.312;13.092;2024-03-06T11:54:30;103018.00;;;15.10
12918;BMP180;6526;54.312;13.092;2024-03-06T11:56:58;103015.00;;;15.00
12918;BMP180;6526;54.312;13.092;2024-03-06T11:59:25;103018.00;;;14.80
12918;BMP180;6526;54.312;13.092;2024-03-06T12:01:52;103021.00;;;14.70
12918;BMP180;6526;54.312;13.092;2024-03-06T12:04:20;103016.00;;;14.70
12918;BMP180;6526;54.312;13.092;2024-03-06T12:06:46;103017.00;;;14.70
12918;BMP180;6526;54.312;13.092;2024-03-06T12:09:12;103014.00;;;14.60
12918;BMP180;6526;54.312;13.092;2024-03-06T12:11:39;103012.00;;;14.60
12918;BMP180;6526;54.312;13.092;2024-03-06T12:14:05;103016.00;;;14.60
12918;BMP180;6526;54.312;13.092;2024-03-06T12:16:31;103008.00;;;14.60
12918;BMP180;6526;54.312;13.092;2024-03-06T12:18:58;103004.00;;;14.70
12918;BMP180;6526;54.312;13.092;2024-03-06T12:21:34;103004.00;;;14.70
12918;BMP180;6526;54.312;13.092;2024-03-06T12:24:08;103018.00;;;14.60
12918;BMP180;6526;54.312;13.092;2024-03-06T12:26:34;103021.00;;;14.60
12918;BMP180;6526;54.312;13.092;2024-03-06T12:29:11;103036.00;;;14.50
12918;BMP180;6526;54.312;13.092;2024-03-06T12:31:42;103031.00;;;14.30
12918;BMP180;6526;54.312;13.092;2024-03-06T12:34:12;103031.00;;;14.30
12918;BMP180;6526;54.312;13.092;2024-03-06T12:36:39;103033.00;;;14.30
12918;BMP180;6526;54.312;13.092;2024-03-06T12:39:06;103045.00;;;14.30
12918;BMP180;6526;54.312;13.092;2024-03-06T12:41:39;103036.00;;;14.30
12918;BMP180;6526;54.312;13.092;2024-03-06T12:44:06;103035.00;;;14.20
12918;BMP180;6526;54.312;13.092;2024-03-06T12:46:32;103025.00;;;14.20
12918;BMP180;6526;54.312;13.092;2024-03-06T12:48:58;103025.00;;;14.10
12918;BMP180;6526;54.312;13.092;2024-03-06T12:51:24;103021.00;;;14.00
12918;BMP180;6526;54.312;13.092;2024-03-06T12:53:50;103032.00;;;14.00
12918;BMP180;6526;54.312;13.092;2024-03-06T12:56:17;103028.00;;;14.00
12918;BMP180;6526;54.312;13.092;2024-03-06T12:58:43;103030.00;;;14.00
12918;BMP180;6526;54.312;13.092;2024-03-06T13:01:09;103023.00;;;14.00
12918;BMP180;6526;54.312;13.092;2024-03-06T13:03:36;103029.00;;;14.00
12918;BMP180;6526;54.312;13.092;2024-03-06T13:06:03;103021.00;;;14.00
12918;BMP180;6526;54.312;13.092;2024-03-06T13:08:30;103020.00;;;14.10
12918;BMP180;6526;54.312;13.092;2024-03-06T13:10:56;103016.00;;;14.10
12918;BMP180;6526;54.312;13.092;2024-03-06T13:13:22;103021.00;;;14.00
12918;BMP180;6526;54.312;13.092;2024-03-06T13:15:52;103028.00;;;13.80
12918;BMP180;6526;54.312;13.092;2024-03-06T13:18:18;103027.00;;;13.80
12918;BMP180;6526;54.312;13.092;2024-03-06T13:20:45;103020.00;;;13.90
12918;BMP180;6526;54.312;13.092;2024-03-06T13:23:11;103023.00;;;13.90
12918;BMP180;6526;54.312;13.092;2024-03-06T13:25:37;103017.00;;;14.00
12918;BMP180;6526;54.312;13.092;2024-03-06T13:28:04;103023.00;;;14.00
12918;BMP180;6526;54.312;13.092;2024-03-06T13:30:31;103021.00;;;13.90
12918;BMP180;6526;54.312;13.092;2024-03-06T13:32:57;103035.00;;;13.80
12918;BMP180;6526;54.312;13.092;2024-03-06T13:35:24;103011.00;;;13.80
12918;BMP180;6526;54.312;13.092;2024-03-06T13:37:50;103023.00;;;13.80
12918;BMP180;6526;54.312;13.092;2024-03-06T13:40:16;103019.00;;;13.80
12918;BMP180;6526;54.312;13.092;2024-03-06T13:42:43;103030.00;;;13.70
12918;BMP180;6526;54.312;13.092;2024-03-06T13:45:10;103030.00;;;13.80
12918;BMP180;6526;54.312;13.092;2024-03-06T13:47:41;103032.00;;;13.80
12918;BMP180;6526;54.312;13.092;2024-03-06T13:50:15;103026.00;;;13.90
12918;BMP180;6526;54.312;13.092;2024-03-06T13:52:42;103037.00;;;13.90
12918;BMP180;6526;54.312;13.092;2024-03-06T13:55:09;103032.00;;;14.00
12918;BMP180;6526;54.312;13.092;2024-03-06T13:57:36;103033.00;;;14.00
12918;BMP180;6526;54.312;13.092;2024-03-06T14:00:07;103028.00;;;14.10